sensor_id;sensor_type;location;lat;lon;timestamp;temperature;humidity
5009;DHT22;2523;51.058;6.922;2023-09-19T00:00:57;17.10;1.00
5009;DHT22;2523;51.058;6.922;2023-09-19T00:03:23;17.10;99.90
5009;DHT22;2523;51.058;6.922;2023-09-19T00:05:50;17.10;99.90
5009;DHT22;2523;51.058;6.922;2023-09-19T00:08:15;17.20;1.00
5009;DHT22;2523;51.058;6.922;2023-09-19T00:10:42;17.20;99.90
5009;DHT22;2523;51.058;6.922;2023-09-19T00:13:08;17.20;99.90
5009;DHT22;2523;51.058;6.922;2023-09-19T00:15:40;17.10;1.00
5009;DHT22;2523;51.058;6.922;2023-09-19T00:18:06;17.10;28.80
5009;DHT22;2523;51.058;6.922;2023-09-19T00:20:32;17.10;1.00
5009;DHT22;2523;51.058;6.922;2023-09-19T00:23:00;17.10;1.00
5009;DHT22;2523;51.058;6.922;2023-09-19T00:25:34;17.10;1.00
5009;DHT22;2523;51.058;6.922;2023-09-19T00:28:01;17.10;99.90
5009;DHT22;2523;51.058;6.922;2023-09-19T00:30:26;17.00;99.90
5009;DHT22;2523;51.058;6.922;2023-09-19T00:32:52;17.00;99.90
5009;DHT22;2523;51.058;6.922;2023-09-19T00:35:18;17.00;1.00
5009;DHT22;2523;51.058;6.922;2023-09-19T00:37:49;16.90;1.00
5009;DHT22;2523;51.058;6.922;2023-09-19T00:40:14;16.90;1.00
5009;DHT22;2523;51.058;6.922;2023-09-19T00:42:45;16.80;1.00
5009;DHT22;2523;51.058;6.922;2023-09-19T00:45:12;16.70;1.00
5009;DHT22;2523;51.058;6.922;2023-09-19T00:47:44;16.70;1.00
5009;DHT22;2523;51.058;6.922;2023-09-19T00:50:11;16.80;99.90
5009;DHT22;2523;51.058;6.922;2023-09-19T00:52:41;16.80;1.00
5009;DHT22;2523;51.058;6.922;2023-09-19T00:55:08;16.80;99.90
5009;DHT22;2523;51.058;6.922;2023-09-19T00:57:35;16.80;1.00
5009;DHT22;2523;51.058;6.922;2023-09-19T01:00:02;16.80;1.00
5009;DHT22;2523;51.058;6.922;2023-09-19T01:02:33;16.80;1.00
5009;DHT22;2523;51.058;6.922;2023-09-19T01:04:59;16.90;99.90
5009;DHT22;2523;51.058;6.922;2023-09-19T01:07:26;17.00;99.90
5009;DHT22;2523;51.058;6.922;2023-09-19T01:09:52;17.10;1.00
5009;DHT22;2523;51.058;6.922;2023-09-19T01:12:30;17.20;1.00
5009;DHT22;2523;51.058;6.922;2023-09-19T01:15:07;17.20;1.00
5009;DHT22;2523;51.058;6.922;2023-09-19T01:17:48;17.20;1.00
5009;DHT22;2523;51.058;6.922;2023-09-19T01:20:31;17.10;1.00
5009;DHT22;2523;51.058;6.922;2023-09-19T01:30:40;17.10;1.00
5009;DHT22;2523;51.058;6.922;2023-09-19T01:33:09;17.10;1.00
5009;DHT22;2523;51.058;6.922;2023-09-19T01:35:38;17.10;22.50
5009;DHT22;2523;51.058;6.922;2023-09-19T01:38:05;17.00;1.00
5009;DHT22;2523;51.058;6.922;2023-09-19T01:40:40;16.90;99.90
5009;DHT22;2523;51.058;6.922;2023-09-19T01:43:12;16.80;99.90
5009;DHT22;2523;51.058;6.922;2023-09-19T01:45:59;16.80;1.00
5009;DHT22;2523;51.058;6.922;2023-09-19T01:51:01;16.80;99.90
5009;DHT22;2523;51.058;6.922;2023-09-19T01:53:33;16.70;99.90
5009;DHT22;2523;51.058;6.922;2023-09-19T01:55:59;16.70;1.00
5009;DHT22;2523;51.058;6.922;2023-09-19T01:58:34;16.80;1.00
5009;DHT22;2523;51.058;6.922;2023-09-19T02:01:01;16.80;1.00
5009;DHT22;2523;51.058;6.922;2023-09-19T02:03:29;16.90;99.90
5009;DHT22;2523;51.058;6.922;2023-09-19T02:05:56;16.90;1.00
5009;DHT22;2523;51.058;6.922;2023-09-19T02:08:22;17.00;99.90
5009;DHT22;2523;51.058;6.922;2023-09-19T02:10:51;17.00;52.50
5009;DHT22;2523;51.058;6.922;2023-09-19T02:13:19;17.00;1.00
5009;DHT22;2523;51.058;6.922;2023-09-19T02:15:45;17.00;1.00
5009;DHT22;2523;51.058;6.922;2023-09-19T02:18:12;17.00;1.00
5009;DHT22;2523;51.058;6.922;2023-09-19T02:20:38;17.00;1.00
5009;DHT22;2523;51.058;6.922;2023-09-19T02:23:04;17.00;1.00
5009;DHT22;2523;51.058;6.922;2023-09-19T02:25:29;16.90;1.00
5009;DHT22;2523;51.058;6.922;2023-09-19T02:27:56;16.90;1.00
5009;DHT22;2523;51.058;6.922;2023-09-19T02:30:24;16.90;1.00
5009;DHT22;2523;51.058;6.922;2023-09-19T02:32:50;16.90;1.00
5009;DHT22;2523;51.058;6.922;2023-09-19T02:35:16;16.90;1.00
5009;DHT22;2523;51.058;6.922;2023-09-19T02:37:42;16.80;1.00
5009;DHT22;2523;51.058;6.922;2023-09-19T02:40:08;16.80;99.90
5009;DHT22;2523;51.058;6.922;2023-09-19T02:42:47;16.80;99.90
5009;DHT22;2523;51.058;6.922;2023-09-19T02:45:18;16.80;99.90
5009;DHT22;2523;51.058;6.922;2023-09-19T02:47:44;16.80;99.90
5009;DHT22;2523;51.058;6.922;2023-09-19T02:50:10;16.80;99.90
5009;DHT22;2523;51.058;6.922;2023-09-19T02:52:37;16.80;99.90
5009;DHT22;2523;51.058;6.922;2023-09-19T02:55:03;16.70;99.90
5009;DHT22;2523;51.058;6.922;2023-09-19T02:57:30;16.60;99.90
5009;DHT22;2523;51.058;6.922;2023-09-19T02:59:58;16.70;99.90
5009;DHT22;2523;51.058;6.922;2023-09-19T03:02:26;16.60;99.90
5009;DHT22;2523;51.058;6.922;2023-09-19T03:04:53;16.50;99.90
5009;DHT22;2523;51.058;6.922;2023-09-19T03:07:18;16.60;99.90
5009;DHT22;2523;51.058;6.922;2023-09-19T03:09:44;16.60;99.90
5009;DHT22;2523;51.058;6.922;2023-09-19T03:12:10;16.60;99.90
5009;DHT22;2523;51.058;6.922;2023-09-19T03:14:36;16.60;82.00
5009;DHT22;2523;51.058;6.922;2023-09-19T03:17:02;16.50;1.00
5009;DHT22;2523;51.058;6.922;2023-09-19T03:19:30;16.60;20.30
5009;DHT22;2523;51.058;6.922;2023-09-19T03:21:59;16.60;1.00
5009;DHT22;2523;51.058;6.922;2023-09-19T03:24:24;16.60;22.20
5009;DHT22;2523;51.058;6.922;2023-09-19T03:26:50;16.50;1.00
5009;DHT22;2523;51.058;6.922;2023-09-19T03:29:16;16.40;1.00
5009;DHT22;2523;51.058;6.922;2023-09-19T03:31:42;16.60;99.90
5009;DHT22;2523;51.058;6.922;2023-09-19T03:34:08;16.60;99.90
5009;DHT22;2523;51.058;6.922;2023-09-19T03:36:34;16.50;11.60
5009;DHT22;2523;51.058;6.922;2023-09-19T03:39:00;16.30;99.90
5009;DHT22;2523;51.058;6.922;2023-09-19T03:41:26;16.20;99.90
5009;DHT22;2523;51.058;6.922;2023-09-19T03:43:51;16.10;1.00
5009;DHT22;2523;51.058;6.922;2023-09-19T03:46:17;16.10;1.00
5009;DHT22;2523;51.058;6.922;2023-09-19T03:48:42;15.90;99.90
5009;DHT22;2523;51.058;6.922;2023-09-19T03:51:08;15.90;1.00
5009;DHT22;2523;51.058;6.922;2023-09-19T03:53:34;15.90;1.00
5009;DHT22;2523;51.058;6.922;2023-09-19T03:56:02;15.90;1.00
5009;DHT22;2523;51.058;6.922;2023-09-19T03:58:28;15.80;1.00
5009;DHT22;2523;51.058;6.922;2023-09-19T04:00:57;15.80;1.00
5009;DHT22;2523;51.058;6.922;2023-09-19T04:03:23;15.80;16.50
5009;DHT22;2523;51.058;6.922;2023-09-19T04:05:50;15.70;99.90
5009;DHT22;2523;51.058;6.922;2023-09-19T04:08:16;15.70;99.90
5009;DHT22;2523;51.058;6.922;2023-09-19T04:10:42;15.70;1.00
5009;DHT22;2523;51.058;6.922;2023-09-19T04:13:08;15.70;1.00
5009;DHT22;2523;51.058;6.922;2023-09-19T04:15:34;15.80;99.90
5009;DHT22;2523;51.058;6.922;2023-09-19T04:17:59;15.80;99.90
5009;DHT22;2523;51.058;6.922;2023-09-19T04:20:25;15.90;99.90
5009;DHT22;2523;51.058;6.922;2023-09-19T04:22:51;15.90;1.00
5009;DHT22;2523;51.058;6.922;2023-09-19T04:25:16;15.80;99.90
5009;DHT22;2523;51.058;6.922;2023-09-19T04:27:44;15.90;99.90
5009;DHT22;2523;51.058;6.922;2023-09-19T04:30:10;15.90;99.90
5009;DHT22;2523;51.058;6.922;2023-09-19T04:32:37;15.90;1.00
5009;DHT22;2523;51.058;6.922;2023-09-19T04:35:10;15.80;1.00
5009;DHT22;2523;51.058;6.922;2023-09-19T04:37:37;15.90;1.00
5009;DHT22;2523;51.058;6.922;2023-09-19T04:40:04;15.80;1.00
5009;DHT22;2523;51.058;6.922;2023-09-19T04:42:31;15.90;25.80
5009;DHT22;2523;51.058;6.922;2023-09-19T04:44:57;16.00;99.90
5009;DHT22;2523;51.058;6.922;2023-09-19T04:47:25;16.00;99.90
5009;DHT22;2523;51.058;6.922;2023-09-19T04:49:51;16.00;1.00
5009;DHT22;2523;51.058;6.922;2023-09-19T04:52:17;16.00;1.00
5009;DHT22;2523;51.058;6.922;2023-09-19T04:54:42;16.00;99.90
5009;DHT22;2523;51.058;6.922;2023-09-19T04:57:08;16.00;99.90
5009;DHT22;2523;51.058;6.922;2023-09-19T04:59:33;16.10;22.80
5009;DHT22;2523;51.058;6.922;2023-09-19T05:01:59;16.00;11.80
5009;DHT22;2523;51.058;6.922;2023-09-19T05:04:24;16.00;1.00
5009;DHT22;2523;51.058;6.922;2023-09-19T05:06:50;15.90;1.00
5009;DHT22;2523;51.058;6.922;2023-09-19T05:09:16;15.90;1.00
5009;DHT22;2523;51.058;6.922;2023-09-19T05:11:45;15.80;1.00
5009;DHT22;2523;51.058;6.922;2023-09-19T05:14:11;15.80;1.00
5009;DHT22;2523;51.058;6.922;2023-09-19T05:16:37;15.80;1.00
5009;DHT22;2523;51.058;6.922;2023-09-19T05:19:02;15.90;1.00
5009;DHT22;2523;51.058;6.922;2023-09-19T05:21:28;15.90;1.00
5009;DHT22;2523;51.058;6.922;2023-09-19T05:23:55;15.90;1.00
5009;DHT22;2523;51.058;6.922;2023-09-19T05:26:21;15.90;1.00
5009;DHT22;2523;51.058;6.922;2023-09-19T05:28:47;15.90;1.00
5009;DHT22;2523;51.058;6.922;2023-09-19T05:31:15;15.90;1.00
5009;DHT22;2523;51.058;6.922;2023-09-19T05:33:42;15.90;1.00
5009;DHT22;2523;51.058;6.922;2023-09-19T05:36:08;15.90;1.00
5009;DHT22;2523;51.058;6.922;2023-09-19T05:38:36;15.90;1.00
5009;DHT22;2523;51.058;6.922;2023-09-19T05:41:02;15.90;1.00
5009;DHT22;2523;51.058;6.922;2023-09-19T05:43:27;15.90;1.00
5009;DHT22;2523;51.058;6.922;2023-09-19T05:45:53;15.90;1.00
5009;DHT22;2523;51.058;6.922;2023-09-19T05:48:22;16.00;1.00
5009;DHT22;2523;51.058;6.922;2023-09-19T05:50:47;16.00;1.00
5009;DHT22;2523;51.058;6.922;2023-09-19T05:53:14;16.10;1.00
5009;DHT22;2523;51.058;6.922;2023-09-19T05:55:40;16.10;99.90
5009;DHT22;2523;51.058;6.922;2023-09-19T05:58:06;16.20;1.00
5009;DHT22;2523;51.058;6.922;2023-09-19T06:00:31;16.10;99.90
5009;DHT22;2523;51.058;6.922;2023-09-19T06:02:58;16.20;99.90
5009;DHT22;2523;51.058;6.922;2023-09-19T06:05:25;16.10;99.90
5009;DHT22;2523;51.058;6.922;2023-09-19T06:07:56;16.10;99.90
5009;DHT22;2523;51.058;6.922;2023-09-19T06:10:23;16.10;99.90
5009;DHT22;2523;51.058;6.922;2023-09-19T06:12:51;16.20;99.90
5009;DHT22;2523;51.058;6.922;2023-09-19T06:15:17;16.20;99.90
5009;DHT22;2523;51.058;6.922;2023-09-19T06:20:14;16.20;99.90
5009;DHT22;2523;51.058;6.922;2023-09-19T06:22:44;16.20;99.90
5009;DHT22;2523;51.058;6.922;2023-09-19T06:25:11;16.20;99.90
5009;DHT22;2523;51.058;6.922;2023-09-19T06:27:40;16.20;99.90
5009;DHT22;2523;51.058;6.922;2023-09-19T06:30:10;16.30;99.90
5009;DHT22;2523;51.058;6.922;2023-09-19T06:32:40;16.20;99.90
5009;DHT22;2523;51.058;6.922;2023-09-19T06:35:09;16.30;99.90
5009;DHT22;2523;51.058;6.922;2023-09-19T06:37:37;16.30;99.90
5009;DHT22;2523;51.058;6.922;2023-09-19T06:40:06;16.30;99.90
5009;DHT22;2523;51.058;6.922;2023-09-19T06:42:32;16.40;99.90
5009;DHT22;2523;51.058;6.922;2023-09-19T06:44:58;16.40;99.90
5009;DHT22;2523;51.058;6.922;2023-09-19T06:47:23;16.40;99.90
5009;DHT22;2523;51.058;6.922;2023-09-19T06:49:51;16.40;99.90
5009;DHT22;2523;51.058;6.922;2023-09-19T06:52:17;16.40;99.90
5009;DHT22;2523;51.058;6.922;2023-09-19T06:54:44;16.40;99.90
5009;DHT22;2523;51.058;6.922;2023-09-19T06:57:10;16.50;99.90
5009;DHT22;2523;51.058;6.922;2023-09-19T06:59:35;16.50;99.90
5009;DHT22;2523;51.058;6.922;2023-09-19T07:02:02;16.60;99.90
5009;DHT22;2523;51.058;6.922;2023-09-19T07:04:28;16.70;99.90
5009;DHT22;2523;51.058;6.922;2023-09-19T07:06:54;16.80;99.90
5009;DHT22;2523;51.058;6.922;2023-09-19T07:09:19;16.80;90.30
5009;DHT22;2523;51.058;6.922;2023-09-19T07:11:45;16.70;11.90
5009;DHT22;2523;51.058;6.922;2023-09-19T07:14:13;16.70;99.90
5009;DHT22;2523;51.058;6.922;2023-09-19T07:16:38;16.70;99.90
5009;DHT22;2523;51.058;6.922;2023-09-19T07:19:05;16.70;99.50
5009;DHT22;2523;51.058;6.922;2023-09-19T07:21:31;16.70;1.00
5009;DHT22;2523;51.058;6.922;2023-09-19T07:23:59;16.80;1.00
5009;DHT22;2523;51.058;6.922;2023-09-19T07:26:26;16.80;1.00
5009;DHT22;2523;51.058;6.922;2023-09-19T07:28:52;16.80;1.00
5009;DHT22;2523;51.058;6.922;2023-09-19T07:31:18;16.90;26.30
5009;DHT22;2523;51.058;6.922;2023-09-19T07:33:44;17.00;1.00
5009;DHT22;2523;51.058;6.922;2023-09-19T07:36:11;17.00;1.00
5009;DHT22;2523;51.058;6.922;2023-09-19T07:38:39;17.00;1.00
5009;DHT22;2523;51.058;6.922;2023-09-19T07:41:05;17.10;1.00
5009;DHT22;2523;51.058;6.922;2023-09-19T07:43:30;17.10;1.00
5009;DHT22;2523;51.058;6.922;2023-09-19T07:45:57;17.20;1.00
5009;DHT22;2523;51.058;6.922;2023-09-19T07:48:22;17.20;1.00
5009;DHT22;2523;51.058;6.922;2023-09-19T07:50:49;17.30;1.00
5009;DHT22;2523;51.058;6.922;2023-09-19T07:56:37;17.40;1.00
5009;DHT22;2523;51.058;6.922;2023-09-19T07:59:03;17.40;1.00
5009;DHT22;2523;51.058;6.922;2023-09-19T08:01:29;17.40;1.00
5009;DHT22;2523;51.058;6.922;2023-09-19T08:03:54;17.40;1.00
5009;DHT22;2523;51.058;6.922;2023-09-19T08:06:20;17.50;1.00
5009;DHT22;2523;51.058;6.922;2023-09-19T08:08:46;17.50;1.00
5009;DHT22;2523;51.058;6.922;2023-09-19T08:11:11;17.60;1.00
5009;DHT22;2523;51.058;6.922;2023-09-19T08:13:41;17.70;1.00
5009;DHT22;2523;51.058;6.922;2023-09-19T08:16:12;17.80;1.00
5009;DHT22;2523;51.058;6.922;2023-09-19T08:18:38;17.90;1.00
5009;DHT22;2523;51.058;6.922;2023-09-19T08:21:05;18.00;1.00
5009;DHT22;2523;51.058;6.922;2023-09-19T08:23:36;17.90;1.00
5009;DHT22;2523;51.058;6.922;2023-09-19T08:26:01;17.90;1.00
5009;DHT22;2523;51.058;6.922;2023-09-19T08:28:32;17.90;1.00
5009;DHT22;2523;51.058;6.922;2023-09-19T08:31:02;17.90;1.00
5009;DHT22;2523;51.058;6.922;2023-09-19T08:33:31;18.00;1.00
5009;DHT22;2523;51.058;6.922;2023-09-19T08:35:56;18.10;1.00
5009;DHT22;2523;51.058;6.922;2023-09-19T08:38:22;18.20;1.00
5009;DHT22;2523;51.058;6.922;2023-09-19T08:40:48;18.20;1.00
5009;DHT22;2523;51.058;6.922;2023-09-19T08:43:13;18.20;1.00
5009;DHT22;2523;51.058;6.922;2023-09-19T08:45:39;18.30;1.00
5009;DHT22;2523;51.058;6.922;2023-09-19T08:50:43;18.40;99.90
5009;DHT22;2523;51.058;6.922;2023-09-19T08:53:19;18.40;99.90
5009;DHT22;2523;51.058;6.922;2023-09-19T08:55:50;18.50;99.90
5009;DHT22;2523;51.058;6.922;2023-09-19T08:58:17;18.50;99.90
5009;DHT22;2523;51.058;6.922;2023-09-19T09:00:48;18.60;99.90
5009;DHT22;2523;51.058;6.922;2023-09-19T09:03:15;18.60;99.90
5009;DHT22;2523;51.058;6.922;2023-09-19T09:05:42;18.50;99.90
5009;DHT22;2523;51.058;6.922;2023-09-19T09:08:10;18.60;99.90
5009;DHT22;2523;51.058;6.922;2023-09-19T09:10:37;18.70;99.90
5009;DHT22;2523;51.058;6.922;2023-09-19T09:13:03;18.80;99.90
5009;DHT22;2523;51.058;6.922;2023-09-19T09:15:36;18.90;99.90
5009;DHT22;2523;51.058;6.922;2023-09-19T09:18:02;19.00;99.90
5009;DHT22;2523;51.058;6.922;2023-09-19T09:20:30;19.10;99.90
5009;DHT22;2523;51.058;6.922;2023-09-19T09:22:56;19.40;99.90
5009;DHT22;2523;51.058;6.922;2023-09-19T09:25:54;19.40;99.90
5009;DHT22;2523;51.058;6.922;2023-09-19T09:28:24;19.50;99.90
5009;DHT22;2523;51.058;6.922;2023-09-19T09:30:50;19.80;99.90
5009;DHT22;2523;51.058;6.922;2023-09-19T09:33:16;19.90;99.90
5009;DHT22;2523;51.058;6.922;2023-09-19T09:35:53;20.00;99.90
5009;DHT22;2523;51.058;6.922;2023-09-19T09:38:23;20.10;99.90
5009;DHT22;2523;51.058;6.922;2023-09-19T09:40:56;20.10;95.50
5009;DHT22;2523;51.058;6.922;2023-09-19T09:43:40;20.30;99.90
5009;DHT22;2523;51.058;6.922;2023-09-19T09:46:16;20.60;61.40
5009;DHT22;2523;51.058;6.922;2023-09-19T09:49:02;20.50;99.90
5009;DHT22;2523;51.058;6.922;2023-09-19T09:52:11;20.50;33.90
5009;DHT22;2523;51.058;6.922;2023-09-19T09:54:59;20.20;48.70
5009;DHT22;2523;51.058;6.922;2023-09-19T09:57:26;20.30;56.60
5009;DHT22;2523;51.058;6.922;2023-09-19T09:59:56;20.30;36.40
5009;DHT22;2523;51.058;6.922;2023-09-19T10:02:37;20.40;23.80
5009;DHT22;2523;51.058;6.922;2023-09-19T10:05:16;20.60;63.40
5009;DHT22;2523;51.058;6.922;2023-09-19T10:07:55;20.80;88.60
5009;DHT22;2523;51.058;6.922;2023-09-19T10:10:34;20.90;30.00
5009;DHT22;2523;51.058;6.922;2023-09-19T10:13:13;20.90;30.90
5009;DHT22;2523;51.058;6.922;2023-09-19T10:15:43;20.80;15.10
5009;DHT22;2523;51.058;6.922;2023-09-19T10:18:19;20.80;15.40
5009;DHT22;2523;51.058;6.922;2023-09-19T10:20:46;20.70;26.20
5009;DHT22;2523;51.058;6.922;2023-09-19T10:23:12;20.90;22.60
5009;DHT22;2523;51.058;6.922;2023-09-19T10:25:41;21.10;17.60
5009;DHT22;2523;51.058;6.922;2023-09-19T10:28:09;21.00;27.70
5009;DHT22;2523;51.058;6.922;2023-09-19T10:30:50;21.00;15.00
5009;DHT22;2523;51.058;6.922;2023-09-19T10:33:19;21.00;21.10
5009;DHT22;2523;51.058;6.922;2023-09-19T10:35:49;21.30;7.90
5009;DHT22;2523;51.058;6.922;2023-09-19T10:38:22;21.10;11.60
5009;DHT22;2523;51.058;6.922;2023-09-19T10:40:53;21.00;19.60
5009;DHT22;2523;51.058;6.922;2023-09-19T10:43:20;21.10;4.50
5009;DHT22;2523;51.058;6.922;2023-09-19T10:45:50;21.40;22.30
5009;DHT22;2523;51.058;6.922;2023-09-19T10:48:18;21.60;1.00
5009;DHT22;2523;51.058;6.922;2023-09-19T10:50:50;21.80;28.90
5009;DHT22;2523;51.058;6.922;2023-09-19T10:53:17;21.70;1.00
5009;DHT22;2523;51.058;6.922;2023-09-19T10:55:55;21.70;1.00
5009;DHT22;2523;51.058;6.922;2023-09-19T10:58:31;21.90;4.80
5009;DHT22;2523;51.058;6.922;2023-09-19T11:01:00;22.10;1.00
5009;DHT22;2523;51.058;6.922;2023-09-19T11:03:41;22.40;1.00
5009;DHT22;2523;51.058;6.922;2023-09-19T11:08:58;22.30;1.00
5009;DHT22;2523;51.058;6.922;2023-09-19T11:14:15;22.80;1.00
5009;DHT22;2523;51.058;6.922;2023-09-19T11:30:38;24.30;1.00
5009;DHT22;2523;51.058;6.922;2023-09-19T11:33:20;24.70;1.00
5009;DHT22;2523;51.058;6.922;2023-09-19T11:46:30;24.90;1.00
5009;DHT22;2523;51.058;6.922;2023-09-19T11:49:05;25.10;1.00
5009;DHT22;2523;51.058;6.922;2023-09-19T11:51:40;24.90;1.00
5009;DHT22;2523;51.058;6.922;2023-09-19T11:54:11;25.00;1.00
5009;DHT22;2523;51.058;6.922;2023-09-19T11:56:44;25.20;1.00
5009;DHT22;2523;51.058;6.922;2023-09-19T11:59:11;25.80;1.00
5009;DHT22;2523;51.058;6.922;2023-09-19T12:01:38;26.70;1.90
5009;DHT22;2523;51.058;6.922;2023-09-19T12:04:11;27.50;8.60
5009;DHT22;2523;51.058;6.922;2023-09-19T12:06:37;27.20;5.80
5009;DHT22;2523;51.058;6.922;2023-09-19T12:09:12;27.10;4.50
5009;DHT22;2523;51.058;6.922;2023-09-19T12:11:42;27.10;4.40
5009;DHT22;2523;51.058;6.922;2023-09-19T12:14:09;26.70;1.00
5009;DHT22;2523;51.058;6.922;2023-09-19T12:16:35;27.00;2.00
5009;DHT22;2523;51.058;6.922;2023-09-19T12:19:18;26.90;1.00
5009;DHT22;2523;51.058;6.922;2023-09-19T12:21:57;27.00;13.20
5009;DHT22;2523;51.058;6.922;2023-09-19T12:24:24;27.10;1.90
5009;DHT22;2523;51.058;6.922;2023-09-19T12:26:59;27.40;4.10
5009;DHT22;2523;51.058;6.922;2023-09-19T12:29:29;27.60;6.00
5009;DHT22;2523;51.058;6.922;2023-09-19T12:31:58;28.20;10.30
5009;DHT22;2523;51.058;6.922;2023-09-19T12:34:29;28.30;11.60
5009;DHT22;2523;51.058;6.922;2023-09-19T12:39:51;29.10;18.90
5009;DHT22;2523;51.058;6.922;2023-09-19T12:42:24;29.10;19.70
5009;DHT22;2523;51.058;6.922;2023-09-19T12:44:51;28.50;14.60
5009;DHT22;2523;51.058;6.922;2023-09-19T12:47:24;28.90;17.40
5009;DHT22;2523;51.058;6.922;2023-09-19T12:50:12;28.80;15.80
5009;DHT22;2523;51.058;6.922;2023-09-19T12:52:49;29.00;16.10
5009;DHT22;2523;51.058;6.922;2023-09-19T12:55:22;29.40;20.30
5009;DHT22;2523;51.058;6.922;2023-09-19T12:58:08;29.70;21.60
5009;DHT22;2523;51.058;6.922;2023-09-19T13:00:45;29.70;22.50
5009;DHT22;2523;51.058;6.922;2023-09-19T13:11:09;28.50;10.30
5009;DHT22;2523;51.058;6.922;2023-09-19T13:16:31;28.70;10.40
5009;DHT22;2523;51.058;6.922;2023-09-19T13:18:56;27.80;2.10
5009;DHT22;2523;51.058;6.922;2023-09-19T13:21:33;26.80;1.00
5009;DHT22;2523;51.058;6.922;2023-09-19T13:24:24;25.80;1.00
5009;DHT22;2523;51.058;6.922;2023-09-19T13:26:54;24.80;1.00
5009;DHT22;2523;51.058;6.922;2023-09-19T13:29:20;24.20;1.00
5009;DHT22;2523;51.058;6.922;2023-09-19T13:31:52;23.80;1.00
5009;DHT22;2523;51.058;6.922;2023-09-19T13:34:19;23.50;1.00
5009;DHT22;2523;51.058;6.922;2023-09-19T13:36:45;23.20;1.00
5009;DHT22;2523;51.058;6.922;2023-09-19T13:39:14;23.30;1.00
5009;DHT22;2523;51.058;6.922;2023-09-19T13:41:40;23.30;1.00
5009;DHT22;2523;51.058;6.922;2023-09-19T13:44:07;23.10;1.00
5009;DHT22;2523;51.058;6.922;2023-09-19T13:46:36;23.00;1.00
5009;DHT22;2523;51.058;6.922;2023-09-19T13:49:02;22.90;1.00
5009;DHT22;2523;51.058;6.922;2023-09-19T13:51:30;22.80;1.00
5009;DHT22;2523;51.058;6.922;2023-09-19T13:53:56;22.80;1.00
5009;DHT22;2523;51.058;6.922;2023-09-19T13:56:22;22.70;1.00
5009;DHT22;2523;51.058;6.922;2023-09-19T13:58:48;22.70;1.00
5009;DHT22;2523;51.058;6.922;2023-09-19T14:01:13;22.70;1.00
5009;DHT22;2523;51.058;6.922;2023-09-19T14:03:39;22.60;1.00
5009;DHT22;2523;51.058;6.922;2023-09-19T14:06:05;22.60;1.00
5009;DHT22;2523;51.058;6.922;2023-09-19T14:08:31;22.50;1.00
5009;DHT22;2523;51.058;6.922;2023-09-19T14:10:58;22.30;1.00
5009;DHT22;2523;51.058;6.922;2023-09-19T14:13:24;22.10;1.00
5009;DHT22;2523;51.058;6.922;2023-09-19T14:15:51;21.90;1.00
5009;DHT22;2523;51.058;6.922;2023-09-19T14:18:16;21.80;1.00
5009;DHT22;2523;51.058;6.922;2023-09-19T14:20:43;21.60;1.00
5009;DHT22;2523;51.058;6.922;2023-09-19T14:23:09;21.50;1.00
5009;DHT22;2523;51.058;6.922;2023-09-19T14:25:35;21.40;1.00
5009;DHT22;2523;51.058;6.922;2023-09-19T14:28:01;21.50;1.00
5009;DHT22;2523;51.058;6.922;2023-09-19T14:30:27;21.60;1.00
5009;DHT22;2523;51.058;6.922;2023-09-19T14:32:53;21.60;1.00
5009;DHT22;2523;51.058;6.922;2023-09-19T14:35:19;21.50;1.00
5009;DHT22;2523;51.058;6.922;2023-09-19T14:37:44;21.50;1.00
5009;DHT22;2523;51.058;6.922;2023-09-19T14:40:11;21.40;1.00
5009;DHT22;2523;51.058;6.922;2023-09-19T14:42:39;21.40;1.00
5009;DHT22;2523;51.058;6.922;2023-09-19T14:45:05;21.50;1.00
5009;DHT22;2523;51.058;6.922;2023-09-19T14:47:32;21.50;1.00
5009;DHT22;2523;51.058;6.922;2023-09-19T14:50:03;21.40;1.00
5009;DHT22;2523;51.058;6.922;2023-09-19T14:52:32;21.40;3.00
5009;DHT22;2523;51.058;6.922;2023-09-19T14:54:59;21.50;1.00
5009;DHT22;2523;51.058;6.922;2023-09-19T14:57:24;21.40;11.70
5009;DHT22;2523;51.058;6.922;2023-09-19T14:59:51;21.50;3.10
5009;DHT22;2523;51.058;6.922;2023-09-19T15:02:17;21.30;3.20
5009;DHT22;2523;51.058;6.922;2023-09-19T15:04:42;21.30;1.00
5009;DHT22;2523;51.058;6.922;2023-09-19T15:07:13;21.30;7.30
5009;DHT22;2523;51.058;6.922;2023-09-19T15:09:41;21.20;1.00
5009;DHT22;2523;51.058;6.922;2023-09-19T15:12:06;21.10;1.00
5009;DHT22;2523;51.058;6.922;2023-09-19T15:14:32;21.00;1.00
5009;DHT22;2523;51.058;6.922;2023-09-19T15:16:58;20.90;1.00
5009;DHT22;2523;51.058;6.922;2023-09-19T15:19:23;20.90;1.00
5009;DHT22;2523;51.058;6.922;2023-09-19T15:21:49;20.80;1.00
5009;DHT22;2523;51.058;6.922;2023-09-19T15:24:14;20.70;3.20
5009;DHT22;2523;51.058;6.922;2023-09-19T15:26:42;20.60;20.70
5009;DHT22;2523;51.058;6.922;2023-09-19T15:29:09;20.60;1.00
5009;DHT22;2523;51.058;6.922;2023-09-19T15:31:35;20.60;8.40
5009;DHT22;2523;51.058;6.922;2023-09-19T15:34:04;20.60;4.10
5009;DHT22;2523;51.058;6.922;2023-09-19T15:36:33;20.60;1.00
5009;DHT22;2523;51.058;6.922;2023-09-19T15:39:06;20.60;8.20
5009;DHT22;2523;51.058;6.922;2023-09-19T15:41:35;20.50;7.90
5009;DHT22;2523;51.058;6.922;2023-09-19T15:44:03;20.60;2.20
5009;DHT22;2523;51.058;6.922;2023-09-19T15:46:31;20.60;8.00
5009;DHT22;2523;51.058;6.922;2023-09-19T15:48:57;20.60;11.80
5009;DHT22;2523;51.058;6.922;2023-09-19T15:51:23;20.60;9.70
5009;DHT22;2523;51.058;6.922;2023-09-19T15:53:51;20.60;23.30
5009;DHT22;2523;51.058;6.922;2023-09-19T15:56:17;20.60;16.20
5009;DHT22;2523;51.058;6.922;2023-09-19T15:58:48;20.60;4.90
5009;DHT22;2523;51.058;6.922;2023-09-19T16:01:14;20.60;14.10
5009;DHT22;2523;51.058;6.922;2023-09-19T16:03:46;20.60;6.50
5009;DHT22;2523;51.058;6.922;2023-09-19T16:06:16;20.60;12.50
5009;DHT22;2523;51.058;6.922;2023-09-19T16:08:47;20.50;19.20
5009;DHT22;2523;51.058;6.922;2023-09-19T16:11:13;20.40;13.80
5009;DHT22;2523;51.058;6.922;2023-09-19T16:13:40;20.50;3.70
5009;DHT22;2523;51.058;6.922;2023-09-19T16:16:08;20.50;7.70
5009;DHT22;2523;51.058;6.922;2023-09-19T16:18:34;20.40;2.80
5009;DHT22;2523;51.058;6.922;2023-09-19T16:21:03;20.40;4.70
5009;DHT22;2523;51.058;6.922;2023-09-19T16:23:29;20.40;8.20
5009;DHT22;2523;51.058;6.922;2023-09-19T16:26:05;20.40;8.70
5009;DHT22;2523;51.058;6.922;2023-09-19T16:28:36;20.40;21.50
5009;DHT22;2523;51.058;6.922;2023-09-19T16:31:03;20.40;15.20
5009;DHT22;2523;51.058;6.922;2023-09-19T16:33:33;20.40;25.10
5009;DHT22;2523;51.058;6.922;2023-09-19T16:36:00;20.30;17.20
5009;DHT22;2523;51.058;6.922;2023-09-19T16:38:26;20.30;32.00
5009;DHT22;2523;51.058;6.922;2023-09-19T16:40:54;20.30;18.90
5009;DHT22;2523;51.058;6.922;2023-09-19T16:43:21;20.30;19.50
5009;DHT22;2523;51.058;6.922;2023-09-19T16:45:56;20.30;29.00
5009;DHT22;2523;51.058;6.922;2023-09-19T16:48:23;20.20;12.20
5009;DHT22;2523;51.058;6.922;2023-09-19T16:50:53;20.10;14.40
5009;DHT22;2523;51.058;6.922;2023-09-19T16:53:20;20.00;20.20
5009;DHT22;2523;51.058;6.922;2023-09-19T16:55:48;20.00;32.40
5009;DHT22;2523;51.058;6.922;2023-09-19T16:58:14;20.00;1.00
5009;DHT22;2523;51.058;6.922;2023-09-19T17:00:40;19.90;7.90
5009;DHT22;2523;51.058;6.922;2023-09-19T17:03:09;19.90;19.40
5009;DHT22;2523;51.058;6.922;2023-09-19T17:05:36;19.90;26.50
5009;DHT22;2523;51.058;6.922;2023-09-19T17:08:04;19.90;25.10
5009;DHT22;2523;51.058;6.922;2023-09-19T17:10:31;19.80;31.20
5009;DHT22;2523;51.058;6.922;2023-09-19T17:13:03;19.80;28.90
5009;DHT22;2523;51.058;6.922;2023-09-19T17:15:32;19.80;21.40
5009;DHT22;2523;51.058;6.922;2023-09-19T17:17:58;19.80;37.90
5009;DHT22;2523;51.058;6.922;2023-09-19T17:20:25;19.70;24.30